sensor_id;sensor_type;location;lat;lon;timestamp;P1;durP1;ratioP1;P2;durP2;ratioP2
23567;SDS011;11962;50.838;4.430;2023-09-30T00:02:24;5.60;;;2.90;;
23567;SDS011;11962;50.838;4.430;2023-09-30T00:04:50;7.53;;;3.10;;
23567;SDS011;11962;50.838;4.430;2023-09-30T00:07:15;5.88;;;2.88;;
23567;SDS011;11962;50.838;4.430;2023-09-30T00:09:41;8.55;;;3.30;;
23567;SDS011;11962;50.838;4.430;2023-09-30T00:12:07;7.55;;;3.28;;
23567;SDS011;11962;50.838;4.430;2023-09-30T00:14:32;6.25;;;3.00;;
23567;SDS011;11962;50.838;4.430;2023-09-30T00:16:58;6.50;;;3.50;;
23567;SDS011;11962;50.838;4.430;2023-09-30T00:19:25;8.30;;;3.40;;
23567;SDS011;11962;50.838;4.430;2023-09-30T00:21:51;8.27;;;3.08;;
23567;SDS011;11962;50.838;4.430;2023-09-30T00:24:17;5.75;;;3.17;;
23567;SDS011;11962;50.838;4.430;2023-09-30T00:26:43;7.57;;;3.63;;
23567;SDS011;11962;50.838;4.430;2023-09-30T00:29:08;4.95;;;3.40;;
23567;SDS011;11962;50.838;4.430;2023-09-30T00:31:35;9.75;;;3.78;;
23567;SDS011;11962;50.838;4.430;2023-09-30T00:34:01;10.75;;;3.55;;
23567;SDS011;11962;50.838;4.430;2023-09-30T00:36:26;5.75;;;3.15;;
23567;SDS011;11962;50.838;4.430;2023-09-30T00:38:53;9.77;;;3.72;;
23567;SDS011;11962;50.838;4.430;2023-09-30T00:41:18;11.45;;;4.03;;
23567;SDS011;11962;50.838;4.430;2023-09-30T00:43:47;11.27;;;4.00;;
23567;SDS011;11962;50.838;4.430;2023-09-30T00:46:32;10.98;;;4.60;;
23567;SDS011;11962;50.838;4.430;2023-09-30T00:48:58;7.32;;;3.67;;
23567;SDS011;11962;50.838;4.430;2023-09-30T00:51:26;7.77;;;3.63;;
23567;SDS011;11962;50.838;4.430;2023-09-30T00:53:52;10.38;;;4.10;;
23567;SDS011;11962;50.838;4.430;2023-09-30T00:56:19;6.43;;;3.63;;
23567;SDS011;11962;50.838;4.430;2023-09-30T00:58:48;7.32;;;4.25;;
23567;SDS011;11962;50.838;4.430;2023-09-30T01:01:16;9.88;;;4.07;;
23567;SDS011;11962;50.838;4.430;2023-09-30T01:03:43;13.50;;;5.00;;
23567;SDS011;11962;50.838;4.430;2023-09-30T01:06:10;10.10;;;4.07;;
23567;SDS011;11962;50.838;4.430;2023-09-30T01:08:36;11.65;;;4.05;;
23567;SDS011;11962;50.838;4.430;2023-09-30T01:11:01;9.25;;;4.57;;
23567;SDS011;11962;50.838;4.430;2023-09-30T01:13:34;11.13;;;4.85;;
23567;SDS011;11962;50.838;4.430;2023-09-30T01:16:06;11.27;;;4.78;;
23567;SDS011;11962;50.838;4.430;2023-09-30T01:18:39;12.10;;;4.70;;
23567;SDS011;11962;50.838;4.430;2023-09-30T01:21:07;9.20;;;4.68;;
23567;SDS011;11962;50.838;4.430;2023-09-30T01:23:34;7.85;;;5.15;;
23567;SDS011;11962;50.838;4.430;2023-09-30T01:26:03;12.50;;;4.28;;
23567;SDS011;11962;50.838;4.430;2023-09-30T01:28:31;8.10;;;4.57;;
23567;SDS011;11962;50.838;4.430;2023-09-30T01:30:58;15.07;;;4.50;;
23567;SDS011;11962;50.838;4.430;2023-09-30T01:33:24;10.45;;;4.78;;
23567;SDS011;11962;50.838;4.430;2023-09-30T01:35:50;8.45;;;4.53;;
23567;SDS011;11962;50.838;4.430;2023-09-30T01:38:16;7.25;;;4.47;;
23567;SDS011;11962;50.838;4.430;2023-09-30T01:40:41;7.50;;;4.63;;
23567;SDS011;11962;50.838;4.430;2023-09-30T01:43:07;9.23;;;4.57;;
23567;SDS011;11962;50.838;4.430;2023-09-30T01:45:33;8.85;;;4.95;;
23567;SDS011;11962;50.838;4.430;2023-09-30T01:48:00;12.75;;;4.72;;
23567;SDS011;11962;50.838;4.430;2023-09-30T01:50:27;8.43;;;4.45;;
23567;SDS011;11962;50.838;4.430;2023-09-30T01:52:52;11.05;;;4.60;;
23567;SDS011;11962;50.838;4.430;2023-09-30T01:55:18;8.18;;;4.97;;
23567;SDS011;11962;50.838;4.430;2023-09-30T01:57:44;9.85;;;4.57;;
23567;SDS011;11962;50.838;4.430;2023-09-30T02:00:09;12.27;;;5.18;;
23567;SDS011;11962;50.838;4.430;2023-09-30T02:02:37;13.00;;;5.28;;
23567;SDS011;11962;50.838;4.430;2023-09-30T02:05:03;9.73;;;4.82;;
23567;SDS011;11962;50.838;4.430;2023-09-30T02:07:29;12.20;;;5.10;;
23567;SDS011;11962;50.838;4.430;2023-09-30T02:09:55;13.63;;;5.32;;
23567;SDS011;11962;50.838;4.430;2023-09-30T02:12:22;9.60;;;5.13;;
23567;SDS011;11962;50.838;4.430;2023-09-30T02:14:48;10.73;;;5.00;;
23567;SDS011;11962;50.838;4.430;2023-09-30T02:17:13;11.90;;;5.10;;
23567;SDS011;11962;50.838;4.430;2023-09-30T02:19:39;7.95;;;5.07;;
23567;SDS011;11962;50.838;4.430;2023-09-30T02:22:08;10.65;;;5.05;;
23567;SDS011;11962;50.838;4.430;2023-09-30T02:24:34;10.70;;;4.93;;
23567;SDS011;11962;50.838;4.430;2023-09-30T02:27:00;11.35;;;5.25;;
23567;SDS011;11962;50.838;4.430;2023-09-30T02:29:26;10.55;;;4.90;;
23567;SDS011;11962;50.838;4.430;2023-09-30T02:31:51;13.15;;;4.80;;
23567;SDS011;11962;50.838;4.430;2023-09-30T02:34:19;9.65;;;5.07;;
23567;SDS011;11962;50.838;4.430;2023-09-30T02:36:45;10.48;;;4.95;;
23567;SDS011;11962;50.838;4.430;2023-09-30T02:39:11;8.88;;;5.10;;
23567;SDS011;11962;50.838;4.430;2023-09-30T02:41:37;7.35;;;4.50;;
23567;SDS011;11962;50.838;4.430;2023-09-30T02:44:03;10.45;;;5.25;;
23567;SDS011;11962;50.838;4.430;2023-09-30T02:46:29;10.13;;;4.95;;
23567;SDS011;11962;50.838;4.430;2023-09-30T02:48:55;9.77;;;5.28;;
23567;SDS011;11962;50.838;4.430;2023-09-30T02:51:20;9.20;;;5.07;;
23567;SDS011;11962;50.838;4.430;2023-09-30T02:53:46;11.20;;;5.22;;
23567;SDS011;11962;50.838;4.430;2023-09-30T02:56:13;13.20;;;5.18;;
23567;SDS011;11962;50.838;4.430;2023-09-30T02:58:39;12.98;;;5.13;;
23567;SDS011;11962;50.838;4.430;2023-09-30T03:01:07;11.80;;;5.45;;
23567;SDS011;11962;50.838;4.430;2023-09-30T03:03:34;9.18;;;5.63;;
23567;SDS011;11962;50.838;4.430;2023-09-30T03:06:00;14.38;;;5.43;;
23567;SDS011;11962;50.838;4.430;2023-09-30T03:08:26;13.95;;;5.13;;
23567;SDS011;11962;50.838;4.430;2023-09-30T03:10:52;9.00;;;5.00;;
23567;SDS011;11962;50.838;4.430;2023-09-30T03:13:18;13.98;;;5.60;;
23567;SDS011;11962;50.838;4.430;2023-09-30T03:18:14;12.30;;;5.07;;
23567;SDS011;11962;50.838;4.430;2023-09-30T03:20:42;13.33;;;5.47;;
23567;SDS011;11962;50.838;4.430;2023-09-30T03:23:08;12.70;;;5.70;;
23567;SDS011;11962;50.838;4.430;2023-09-30T03:25:35;12.57;;;5.78;;
23567;SDS011;11962;50.838;4.430;2023-09-30T03:28:01;11.75;;;5.45;;
23567;SDS011;11962;50.838;4.430;2023-09-30T03:30:27;13.52;;;5.30;;
23567;SDS011;11962;50.838;4.430;2023-09-30T03:32:54;9.60;;;5.30;;
23567;SDS011;11962;50.838;4.430;2023-09-30T03:35:20;18.90;;;5.45;;
23567;SDS011;11962;50.838;4.430;2023-09-30T03:37:47;9.27;;;5.40;;
23567;SDS011;11962;50.838;4.430;2023-09-30T03:40:13;14.38;;;5.75;;
23567;SDS011;11962;50.838;4.430;2023-09-30T03:42:42;9.73;;;6.30;;
23567;SDS011;11962;50.838;4.430;2023-09-30T03:45:09;11.35;;;6.00;;
23567;SDS011;11962;50.838;4.430;2023-09-30T03:47:35;12.32;;;6.03;;
23567;SDS011;11962;50.838;4.430;2023-09-30T03:50:02;19.27;;;6.68;;
23567;SDS011;11962;50.838;4.430;2023-09-30T03:52:29;16.02;;;6.20;;
23567;SDS011;11962;50.838;4.430;2023-09-30T03:54:58;14.90;;;5.93;;
23567;SDS011;11962;50.838;4.430;2023-09-30T03:57:33;12.60;;;6.40;;
23567;SDS011;11962;50.838;4.430;2023-09-30T03:59:59;15.07;;;6.68;;
23567;SDS011;11962;50.838;4.430;2023-09-30T04:02:26;12.35;;;6.55;;
23567;SDS011;11962;50.838;4.430;2023-09-30T04:04:52;17.33;;;6.53;;
23567;SDS011;11962;50.838;4.430;2023-09-30T04:09:46;15.45;;;6.53;;
23567;SDS011;11962;50.838;4.430;2023-09-30T04:12:12;15.25;;;6.30;;
23567;SDS011;11962;50.838;4.430;2023-09-30T04:14:38;14.20;;;6.10;;
23567;SDS011;11962;50.838;4.430;2023-09-30T04:17:04;13.70;;;6.72;;
23567;SDS011;11962;50.838;4.430;2023-09-30T04:19:30;13.05;;;6.20;;
23567;SDS011;11962;50.838;4.430;2023-09-30T04:21:56;12.32;;;6.80;;
23567;SDS011;11962;50.838;4.430;2023-09-30T04:24:22;11.50;;;6.65;;
23567;SDS011;11962;50.838;4.430;2023-09-30T04:26:48;14.25;;;7.05;;
23567;SDS011;11962;50.838;4.430;2023-09-30T04:29:15;14.80;;;6.75;;
23567;SDS011;11962;50.838;4.430;2023-09-30T04:31:41;17.80;;;7.18;;
23567;SDS011;11962;50.838;4.430;2023-09-30T04:34:07;15.32;;;7.47;;
23567;SDS011;11962;50.838;4.430;2023-09-30T04:36:33;17.20;;;7.28;;
23567;SDS011;11962;50.838;4.430;2023-09-30T04:39:00;17.40;;;6.55;;
23567;SDS011;11962;50.838;4.430;2023-09-30T04:41:26;15.52;;;6.80;;
23567;SDS011;11962;50.838;4.430;2023-09-30T04:43:51;18.45;;;7.28;;
23567;SDS011;11962;50.838;4.430;2023-09-30T04:46:18;16.80;;;7.35;;
23567;SDS011;11962;50.838;4.430;2023-09-30T04:48:47;16.73;;;7.20;;
23567;SDS011;11962;50.838;4.430;2023-09-30T04:51:13;18.65;;;8.20;;
23567;SDS011;11962;50.838;4.430;2023-09-30T04:53:43;13.82;;;7.85;;
23567;SDS011;11962;50.838;4.430;2023-09-30T04:56:10;19.42;;;8.05;;
23567;SDS011;11962;50.838;4.430;2023-09-30T04:58:36;19.98;;;8.98;;
23567;SDS011;11962;50.838;4.430;2023-09-30T05:01:01;19.20;;;8.05;;
23567;SDS011;11962;50.838;4.430;2023-09-30T05:03:27;17.48;;;8.60;;
23567;SDS011;11962;50.838;4.430;2023-09-30T05:05:53;20.45;;;9.13;;
23567;SDS011;11962;50.838;4.430;2023-09-30T05:08:20;24.93;;;9.50;;
23567;SDS011;11962;50.838;4.430;2023-09-30T05:10:47;22.45;;;8.45;;
23567;SDS011;11962;50.838;4.430;2023-09-30T05:13:13;20.95;;;8.48;;
23567;SDS011;11962;50.838;4.430;2023-09-30T05:15:39;19.08;;;8.68;;
23567;SDS011;11962;50.838;4.430;2023-09-30T05:18:06;20.63;;;9.40;;
23567;SDS011;11962;50.838;4.430;2023-09-30T05:20:34;20.00;;;8.75;;
23567;SDS011;11962;50.838;4.430;2023-09-30T05:23:01;23.17;;;9.25;;
23567;SDS011;11962;50.838;4.430;2023-09-30T05:25:27;22.13;;;8.93;;
23567;SDS011;11962;50.838;4.430;2023-09-30T05:27:54;18.27;;;9.00;;
23567;SDS011;11962;50.838;4.430;2023-09-30T05:30:19;25.40;;;9.85;;
23567;SDS011;11962;50.838;4.430;2023-09-30T05:32:45;26.73;;;9.20;;
23567;SDS011;11962;50.838;4.430;2023-09-30T05:35:12;22.35;;;9.27;;
23567;SDS011;11962;50.838;4.430;2023-09-30T05:37:41;21.08;;;8.82;;
23567;SDS011;11962;50.838;4.430;2023-09-30T05:40:07;19.40;;;9.18;;
23567;SDS011;11962;50.838;4.430;2023-09-30T05:42:45;21.80;;;10.00;;
23567;SDS011;11962;50.838;4.430;2023-09-30T05:45:11;25.85;;;10.02;;
23567;SDS011;11962;50.838;4.430;2023-09-30T05:47:40;23.67;;;10.65;;
23567;SDS011;11962;50.838;4.430;2023-09-30T05:50:06;21.73;;;9.68;;
23567;SDS011;11962;50.838;4.430;2023-09-30T05:52:34;24.60;;;10.33;;
23567;SDS011;11962;50.838;4.430;2023-09-30T05:55:01;24.45;;;9.93;;
23567;SDS011;11962;50.838;4.430;2023-09-30T05:57:28;25.23;;;10.07;;
23567;SDS011;11962;50.838;4.430;2023-09-30T05:59:53;21.42;;;10.20;;
23567;SDS011;11962;50.838;4.430;2023-09-30T06:02:19;23.33;;;10.52;;
23567;SDS011;11962;50.838;4.430;2023-09-30T06:04:45;28.77;;;11.00;;
23567;SDS011;11962;50.838;4.430;2023-09-30T06:07:11;20.73;;;9.63;;
23567;SDS011;11962;50.838;4.430;2023-09-30T06:09:37;20.45;;;9.80;;
23567;SDS011;11962;50.838;4.430;2023-09-30T06:12:03;19.25;;;10.00;;
23567;SDS011;11962;50.838;4.430;2023-09-30T06:14:31;26.95;;;11.15;;
23567;SDS011;11962;50.838;4.430;2023-09-30T06:16:57;24.77;;;10.45;;
23567;SDS011;11962;50.838;4.430;2023-09-30T06:19:23;26.25;;;10.13;;
23567;SDS011;11962;50.838;4.430;2023-09-30T06:21:51;22.25;;;9.95;;
23567;SDS011;11962;50.838;4.430;2023-09-30T06:24:17;21.70;;;9.88;;
23567;SDS011;11962;50.838;4.430;2023-09-30T06:26:45;29.15;;;10.55;;
23567;SDS011;11962;50.838;4.430;2023-09-30T06:29:13;19.05;;;9.90;;
23567;SDS011;11962;50.838;4.430;2023-09-30T06:31:40;20.65;;;9.45;;
23567;SDS011;11962;50.838;4.430;2023-09-30T06:34:05;18.90;;;9.25;;
23567;SDS011;11962;50.838;4.430;2023-09-30T06:36:32;25.83;;;10.43;;
23567;SDS011;11962;50.838;4.430;2023-09-30T06:38:57;19.98;;;9.98;;
23567;SDS011;11962;50.838;4.430;2023-09-30T06:41:24;24.80;;;10.40;;
23567;SDS011;11962;50.838;4.430;2023-09-30T06:43:50;26.23;;;11.00;;
23567;SDS011;11962;50.838;4.430;2023-09-30T06:46:17;24.83;;;10.65;;
23567;SDS011;11962;50.838;4.430;2023-09-30T06:48:43;24.35;;;11.50;;
23567;SDS011;11962;50.838;4.430;2023-09-30T06:51:13;30.67;;;11.40;;
23567;SDS011;11962;50.838;4.430;2023-09-30T06:53:42;24.95;;;11.43;;
23567;SDS011;11962;50.838;4.430;2023-09-30T06:56:08;30.30;;;11.73;;
23567;SDS011;11962;50.838;4.430;2023-09-30T06:58:34;29.52;;;10.77;;
23567;SDS011;11962;50.838;4.430;2023-09-30T07:01:00;21.33;;;11.13;;
23567;SDS011;11962;50.838;4.430;2023-09-30T07:03:26;33.45;;;12.05;;
23567;SDS011;11962;50.838;4.430;2023-09-30T07:05:52;18.00;;;9.77;;
23567;SDS011;11962;50.838;4.430;2023-09-30T07:08:19;28.42;;;11.93;;
23567;SDS011;11962;50.838;4.430;2023-09-30T07:10:48;25.48;;;11.63;;
23567;SDS011;11962;50.838;4.430;2023-09-30T07:13:15;26.38;;;11.13;;
23567;SDS011;11962;50.838;4.430;2023-09-30T07:15:41;30.35;;;10.82;;
23567;SDS011;11962;50.838;4.430;2023-09-30T07:18:07;25.40;;;11.00;;
23567;SDS011;11962;50.838;4.430;2023-09-30T07:20:33;28.70;;;10.35;;
23567;SDS011;11962;50.838;4.430;2023-09-30T07:22:59;26.75;;;10.20;;
23567;SDS011;11962;50.838;4.430;2023-09-30T07:25:28;22.27;;;9.18;;
23567;SDS011;11962;50.838;4.430;2023-09-30T07:27:57;17.55;;;7.60;;
23567;SDS011;11962;50.838;4.430;2023-09-30T07:30:24;23.65;;;7.68;;
23567;SDS011;11962;50.838;4.430;2023-09-30T07:32:50;25.42;;;7.88;;
23567;SDS011;11962;50.838;4.430;2023-09-30T07:35:17;22.27;;;7.60;;
23567;SDS011;11962;50.838;4.430;2023-09-30T07:37:43;20.10;;;6.57;;
23567;SDS011;11962;50.838;4.430;2023-09-30T07:40:09;22.25;;;7.10;;
23567;SDS011;11962;50.838;4.430;2023-09-30T07:42:36;20.08;;;5.90;;
23567;SDS011;11962;50.838;4.430;2023-09-30T07:45:02;23.27;;;6.63;;
23567;SDS011;11962;50.838;4.430;2023-09-30T07:47:29;18.85;;;6.28;;
23567;SDS011;11962;50.838;4.430;2023-09-30T07:49:59;24.73;;;6.07;;
23567;SDS011;11962;50.838;4.430;2023-09-30T07:52:27;16.83;;;5.47;;
23567;SDS011;11962;50.838;4.430;2023-09-30T07:54:53;18.58;;;5.80;;
23567;SDS011;11962;50.838;4.430;2023-09-30T07:57:19;21.08;;;5.15;;
23567;SDS011;11962;50.838;4.430;2023-09-30T07:59:45;15.65;;;4.85;;
23567;SDS011;11962;50.838;4.430;2023-09-30T08:02:11;17.70;;;4.88;;
23567;SDS011;11962;50.838;4.430;2023-09-30T08:04:37;14.63;;;4.55;;
23567;SDS011;11962;50.838;4.430;2023-09-30T08:07:03;18.08;;;5.03;;
23567;SDS011;11962;50.838;4.430;2023-09-30T08:09:28;15.43;;;4.57;;
23567;SDS011;11962;50.838;4.430;2023-09-30T08:11:54;15.65;;;4.57;;
23567;SDS011;11962;50.838;4.430;2023-09-30T08:14:21;18.83;;;4.78;;
23567;SDS011;11962;50.838;4.430;2023-09-30T08:16:47;14.73;;;4.75;;
23567;SDS011;11962;50.838;4.430;2023-09-30T08:19:14;17.92;;;5.13;;
23567;SDS011;11962;50.838;4.430;2023-09-30T08:21:40;13.68;;;4.70;;
23567;SDS011;11962;50.838;4.430;2023-09-30T08:24:06;20.45;;;5.22;;
23567;SDS011;11962;50.838;4.430;2023-09-30T08:26:32;19.58;;;5.25;;
23567;SDS011;11962;50.838;4.430;2023-09-30T08:28:58;17.17;;;4.80;;
23567;SDS011;11962;50.838;4.430;2023-09-30T08:31:24;15.35;;;4.97;;
23567;SDS011;11962;50.838;4.430;2023-09-30T08:33:50;15.90;;;4.43;;
23567;SDS011;11962;50.838;4.430;2023-09-30T08:36:16;16.58;;;5.50;;
23567;SDS011;11962;50.838;4.430;2023-09-30T08:38:42;10.75;;;4.30;;
23567;SDS011;11962;50.838;4.430;2023-09-30T08:41:09;15.65;;;4.93;;
23567;SDS011;11962;50.838;4.430;2023-09-30T08:43:38;14.18;;;4.78;;
23567;SDS011;11962;50.838;4.430;2023-09-30T08:46:04;14.52;;;4.93;;
23567;SDS011;11962;50.838;4.430;2023-09-30T08:48:34;18.30;;;4.40;;
23567;SDS011;11962;50.838;4.430;2023-09-30T08:51:01;11.02;;;4.45;;
23567;SDS011;11962;50.838;4.430;2023-09-30T08:53:30;11.90;;;4.60;;
23567;SDS011;11962;50.838;4.430;2023-09-30T08:55:57;12.98;;;4.40;;
23567;SDS011;11962;50.838;4.430;2023-09-30T08:58:28;13.30;;;4.85;;
23567;SDS011;11962;50.838;4.430;2023-09-30T09:00:54;13.55;;;4.28;;
23567;SDS011;11962;50.838;4.430;2023-09-30T09:03:21;14.02;;;4.28;;
23567;SDS011;11962;50.838;4.430;2023-09-30T09:05:56;12.45;;;4.40;;
23567;SDS011;11962;50.838;4.430;2023-09-30T09:08:23;12.45;;;4.65;;
23567;SDS011;11962;50.838;4.430;2023-09-30T09:10:54;14.07;;;4.72;;
23567;SDS011;11962;50.838;4.430;2023-09-30T09:13:21;14.05;;;5.13;;
23567;SDS011;11962;50.838;4.430;2023-09-30T09:15:47;17.63;;;4.90;;
23567;SDS011;11962;50.838;4.430;2023-09-30T09:18:17;25.98;;;7.43;;
23567;SDS011;11962;50.838;4.430;2023-09-30T09:21:17;19.20;;;5.68;;
23567;SDS011;11962;50.838;4.430;2023-09-30T09:23:46;13.40;;;4.05;;
23567;SDS011;11962;50.838;4.430;2023-09-30T09:26:29;12.52;;;4.05;;
23567;SDS011;11962;50.838;4.430;2023-09-30T09:28:57;13.95;;;3.80;;
23567;SDS011;11962;50.838;4.430;2023-09-30T09:31:28;13.32;;;3.83;;
23567;SDS011;11962;50.838;4.430;2023-09-30T09:33:57;11.73;;;3.72;;
23567;SDS011;11962;50.838;4.430;2023-09-30T09:36:40;10.07;;;3.63;;
23567;SDS011;11962;50.838;4.430;2023-09-30T09:39:10;12.05;;;3.35;;
23567;SDS011;11962;50.838;4.430;2023-09-30T09:41:50;11.02;;;3.75;;
23567;SDS011;11962;50.838;4.430;2023-09-30T09:44:20;9.40;;;3.22;;
23567;SDS011;11962;50.838;4.430;2023-09-30T09:46:50;7.47;;;3.25;;
23567;SDS011;11962;50.838;4.430;2023-09-30T09:49:16;10.18;;;3.50;;
23567;SDS011;11962;50.838;4.430;2023-09-30T09:51:43;7.88;;;2.90;;
23567;SDS011;11962;50.838;4.430;2023-09-30T09:54:11;10.73;;;3.60;;
23567;SDS011;11962;50.838;4.430;2023-09-30T09:56:38;10.70;;;3.72;;
23567;SDS011;11962;50.838;4.430;2023-09-30T09:59:05;9.68;;;3.15;;
23567;SDS011;11962;50.838;4.430;2023-09-30T10:01:33;8.00;;;2.83;;
23567;SDS011;11962;50.838;4.430;2023-09-30T10:04:00;10.43;;;3.50;;
23567;SDS011;11962;50.838;4.430;2023-09-30T10:06:26;10.02;;;3.53;;
23567;SDS011;11962;50.838;4.430;2023-09-30T10:08:53;10.00;;;3.60;;
23567;SDS011;11962;50.838;4.430;2023-09-30T10:11:22;13.27;;;3.50;;
23567;SDS011;11962;50.838;4.430;2023-09-30T10:21:35;9.80;;;3.42;;
23567;SDS011;11962;50.838;4.430;2023-09-30T10:29:57;9.95;;;3.20;;
23567;SDS011;11962;50.838;4.430;2023-09-30T10:40:50;11.38;;;3.05;;
23567;SDS011;11962;50.838;4.430;2023-09-30T10:46:03;8.03;;;3.40;;
23567;SDS011;11962;50.838;4.430;2023-09-30T10:48:33;9.23;;;2.97;;
23567;SDS011;11962;50.838;4.430;2023-09-30T10:51:00;8.35;;;2.83;;
23567;SDS011;11962;50.838;4.430;2023-09-30T10:53:39;9.00;;;3.13;;
23567;SDS011;11962;50.838;4.430;2023-09-30T10:56:10;12.98;;;3.33;;
23567;SDS011;11962;50.838;4.430;2023-09-30T10:58:40;10.03;;;3.30;;
23567;SDS011;11962;50.838;4.430;2023-09-30T11:01:06;8.23;;;3.17;;
23567;SDS011;11962;50.838;4.430;2023-09-30T11:03:32;14.50;;;3.20;;
23567;SDS011;11962;50.838;4.430;2023-09-30T11:05:58;8.93;;;3.45;;
23567;SDS011;11962;50.838;4.430;2023-09-30T11:08:24;11.38;;;3.17;;
23567;SDS011;11962;50.838;4.430;2023-09-30T11:10:55;9.40;;;3.33;;
23567;SDS011;11962;50.838;4.430;2023-09-30T11:13:21;7.03;;;2.90;;
23567;SDS011;11962;50.838;4.430;2023-09-30T11:15:47;9.80;;;3.10;;
23567;SDS011;11962;50.838;4.430;2023-09-30T11:18:24;10.18;;;3.10;;
23567;SDS011;11962;50.838;4.430;2023-09-30T11:20:49;10.55;;;3.45;;
23567;SDS011;11962;50.838;4.430;2023-09-30T11:23:27;9.63;;;3.58;;
23567;SDS011;11962;50.838;4.430;2023-09-30T11:25:53;10.98;;;3.17;;
23567;SDS011;11962;50.838;4.430;2023-09-30T11:28:19;11.85;;;3.88;;
23567;SDS011;11962;50.838;4.430;2023-09-30T11:30:56;9.03;;;2.93;;
23567;SDS011;11962;50.838;4.430;2023-09-30T11:33:23;9.63;;;3.17;;
23567;SDS011;11962;50.838;4.430;2023-09-30T11:36:00;9.52;;;2.80;;
23567;SDS011;11962;50.838;4.430;2023-09-30T11:41:03;8.23;;;2.70;;
23567;SDS011;11962;50.838;4.430;2023-09-30T11:43:31;9.23;;;2.97;;
23567;SDS011;11962;50.838;4.430;2023-09-30T11:46:09;8.18;;;2.92;;
23567;SDS011;11962;50.838;4.430;2023-09-30T11:48:40;9.27;;;2.83;;
23567;SDS011;11962;50.838;4.430;2023-09-30T11:51:25;6.65;;;2.28;;
23567;SDS011;11962;50.838;4.430;2023-09-30T11:53:52;8.70;;;2.65;;
23567;SDS011;11962;50.838;4.430;2023-09-30T11:56:19;8.00;;;2.97;;
23567;SDS011;11962;50.838;4.430;2023-09-30T11:58:47;8.60;;;2.70;;
23567;SDS011;11962;50.838;4.430;2023-09-30T12:01:14;9.75;;;2.95;;
23567;SDS011;11962;50.838;4.430;2023-09-30T12:03:39;9.60;;;2.88;;
23567;SDS011;11962;50.838;4.430;2023-09-30T12:06:05;9.77;;;2.80;;
23567;SDS011;11962;50.838;4.430;2023-09-30T12:08:31;8.60;;;3.08;;
23567;SDS011;11962;50.838;4.430;2023-09-30T12:10:57;9.63;;;2.28;;
23567;SDS011;11962;50.838;4.430;2023-09-30T12:13:24;8.18;;;2.97;;
23567;SDS011;11962;50.838;4.430;2023-09-30T12:15:51;7.78;;;2.85;;
23567;SDS011;11962;50.838;4.430;2023-09-30T12:18:20;7.78;;;2.78;;
23567;SDS011;11962;50.838;4.430;2023-09-30T12:20:49;9.77;;;2.90;;
23567;SDS011;11962;50.838;4.430;2023-09-30T12:23:17;6.55;;;2.72;;
23567;SDS011;11962;50.838;4.430;2023-09-30T12:25:43;7.43;;;2.28;;
23567;SDS011;11962;50.838;4.430;2023-09-30T12:28:09;6.70;;;2.67;;
23567;SDS011;11962;50.838;4.430;2023-09-30T12:30:35;10.18;;;2.70;;
23567;SDS011;11962;50.838;4.430;2023-09-30T12:33:01;8.57;;;2.72;;
23567;SDS011;11962;50.838;4.430;2023-09-30T12:35:27;7.88;;;2.60;;
23567;SDS011;11962;50.838;4.430;2023-09-30T12:37:52;7.22;;;2.85;;
23567;SDS011;11962;50.838;4.430;2023-09-30T12:40:18;8.40;;;2.83;;
23567;SDS011;11962;50.838;4.430;2023-09-30T12:42:44;6.97;;;2.55;;
23567;SDS011;11962;50.838;4.430;2023-09-30T12:45:12;6.82;;;2.90;;
23567;SDS011;11962;50.838;4.430;2023-09-30T12:47:38;5.95;;;2.30;;
23567;SDS011;11962;50.838;4.430;2023-09-30T12:50:04;7.45;;;2.80;;
23567;SDS011;11962;50.838;4.430;2023-09-30T12:52:34;7.78;;;2.60;;
23567;SDS011;11962;50.838;4.430;2023-09-30T12:55:00;8.23;;;2.50;;
23567;SDS011;11962;50.838;4.430;2023-09-30T12:57:26;6.20;;;2.40;;
23567;SDS011;11962;50.838;4.430;2023-09-30T12:59:52;6.60;;;2.40;;
23567;SDS011;11962;50.838;4.430;2023-09-30T13:02:18;8.07;;;2.30;;
23567;SDS011;11962;50.838;4.430;2023-09-30T13:04:44;9.05;;;2.50;;
23567;SDS011;11962;50.838;4.430;2023-09-30T13:07:11;7.60;;;2.25;;
23567;SDS011;11962;50.838;4.430;2023-09-30T13:09:40;7.10;;;2.40;;
23567;SDS011;11962;50.838;4.430;2023-09-30T13:12:06;6.53;;;2.50;;
23567;SDS011;11962;50.838;4.430;2023-09-30T13:14:33;8.15;;;2.67;;
23567;SDS011;11962;50.838;4.430;2023-09-30T13:16:59;6.63;;;3.05;;
23567;SDS011;11962;50.838;4.430;2023-09-30T13:19:25;10.00;;;2.40;;
23567;SDS011;11962;50.838;4.430;2023-09-30T13:21:50;11.00;;;2.50;;
23567;SDS011;11962;50.838;4.430;2023-09-30T13:24:18;6.07;;;2.57;;
23567;SDS011;11962;50.838;4.430;2023-09-30T13:26:44;5.03;;;2.45;;
23567;SDS011;11962;50.838;4.430;2023-09-30T13:29:11;7.57;;;2.45;;
23567;SDS011;11962;50.838;4.430;2023-09-30T13:31:38;8.68;;;2.50;;
23567;SDS011;11962;50.838;4.430;2023-09-30T13:34:04;10.18;;;2.60;;
23567;SDS011;11962;50.838;4.430;2023-09-30T13:36:31;8.55;;;2.42;;
23567;SDS011;11962;50.838;4.430;2023-09-30T13:38:57;7.15;;;2.58;;
23567;SDS011;11962;50.838;4.430;2023-09-30T13:41:23;8.77;;;2.80;;
23567;SDS011;11962;50.838;4.430;2023-09-30T13:43:48;7.53;;;2.50;;
23567;SDS011;11962;50.838;4.430;2023-09-30T13:46:14;9.43;;;2.33;;
23567;SDS011;11962;50.838;4.430;2023-09-30T13:48:41;8.80;;;2.50;;
23567;SDS011;11962;50.838;4.430;2023-09-30T13:51:07;7.97;;;2.75;;
23567;SDS011;11962;50.838;4.430;2023-09-30T13:53:34;8.38;;;2.65;;
23567;SDS011;11962;50.838;4.430;2023-09-30T13:56:00;5.55;;;2.40;;
23567;SDS011;11962;50.838;4.430;2023-09-30T13:58:28;7.57;;;2.70;;
23567;SDS011;11962;50.838;4.430;2023-09-30T14:00:54;12.35;;;2.72;;
23567;SDS011;11962;50.838;4.430;2023-09-30T14:03:23;7.80;;;2.50;;
23567;SDS011;11962;50.838;4.430;2023-09-30T14:05:51;11.15;;;2.97;;
23567;SDS011;11962;50.838;4.430;2023-09-30T14:08:21;6.80;;;2.33;;
23567;SDS011;11962;50.838;4.430;2023-09-30T14:10:47;10.35;;;3.15;;
23567;SDS011;11962;50.838;4.430;2023-09-30T14:13:13;8.45;;;2.72;;
23567;SDS011;11962;50.838;4.430;2023-09-30T14:15:40;6.07;;;2.75;;
23567;SDS011;11962;50.838;4.430;2023-09-30T14:18:05;9.70;;;2.53;;
23567;SDS011;11962;50.838;4.430;2023-09-30T14:20:31;10.05;;;2.55;;
23567;SDS011;11962;50.838;4.430;2023-09-30T14:22:59;8.00;;;2.28;;
23567;SDS011;11962;50.838;4.430;2023-09-30T14:25:24;8.20;;;2.70;;
23567;SDS011;11962;50.838;4.430;2023-09-30T14:27:51;6.93;;;2.28;;
23567;SDS011;11962;50.838;4.430;2023-09-30T14:30:17;9.40;;;2.38;;
23567;SDS011;11962;50.838;4.430;2023-09-30T14:32:44;6.90;;;2.75;;
23567;SDS011;11962;50.838;4.430;2023-09-30T14:35:10;8.57;;;2.78;;
23567;SDS011;11962;50.838;4.430;2023-09-30T14:37:36;6.18;;;2.20;;
23567;SDS011;11962;50.838;4.430;2023-09-30T14:40:02;7.32;;;2.13;;
23567;SDS011;11962;50.838;4.430;2023-09-30T14:42:31;7.20;;;2.28;;
23567;SDS011;11962;50.838;4.430;2023-09-30T14:44:57;8.63;;;2.70;;
23567;SDS011;11962;50.838;4.430;2023-09-30T14:47:22;7.30;;;2.30;;
23567;SDS011;11962;50.838;4.430;2023-09-30T14:49:48;5.50;;;2.00;;
23567;SDS011;11962;50.838;4.430;2023-09-30T14:52:14;6.43;;;2.25;;
23567;SDS011;11962;50.838;4.430;2023-09-30T14:54:40;7.38;;;2.17;;
23567;SDS011;11962;50.838;4.430;2023-09-30T14:57:06;9.35;;;2.47;;
23567;SDS011;11962;50.838;4.430;2023-09-30T14:59:34;8.52;;;2.30;;
23567;SDS011;11962;50.838;4.430;2023-09-30T15:01:59;9.80;;;2.35;;
23567;SDS011;11962;50.838;4.430;2023-09-30T15:04:25;4.88;;;2.17;;
23567;SDS011;11962;50.838;4.430;2023-09-30T15:06:51;6.97;;;2.42;;
23567;SDS011;11962;50.838;4.430;2023-09-30T15:09:17;6.80;;;2.33;;
23567;SDS011;11962;50.838;4.430;2023-09-30T15:11:43;7.72;;;2.40;;